createdAt,value
2023-05-11T00:01:18.481Z,7.70
2023-05-11T00:03:45.397Z,7.70
2023-05-11T00:06:12.312Z,7.80
2023-05-11T00:08:39.177Z,7.80
2023-05-11T00:11:09.612Z,7.80
2023-05-11T00:13:36.471Z,7.70
2023-05-11T00:16:04.063Z,7.70
2023-05-11T00:18:31.009Z,7.70
2023-05-11T00:20:57.953Z,7.70
2023-05-11T00:23:24.823Z,7.70
2023-05-11T00:25:51.607Z,7.70
2023-05-11T00:28:18.549Z,7.70
2023-05-11T00:30:45.427Z,7.70
2023-05-11T00:33:12.357Z,7.70
2023-05-11T00:35:39.348Z,7.70
2023-05-11T00:38:06.426Z,7.70
2023-05-11T00:40:33.573Z,7.70
2023-05-11T00:43:01.077Z,7.70
2023-05-11T00:45:28.309Z,7.70
2023-05-11T00:47:55.251Z,7.70
2023-05-11T00:50:22.188Z,7.70
2023-05-11T00:52:49.069Z,7.70
2023-05-11T00:55:19.175Z,7.70
2023-05-11T00:57:46.346Z,7.70
2023-05-11T01:00:13.669Z,7.70
2023-05-11T01:02:41.357Z,7.70
2023-05-11T01:05:08.974Z,7.70
2023-05-11T01:07:59.862Z,7.70
2023-05-11T01:10:39.919Z,7.70
2023-05-11T01:13:24.548Z,7.70
2023-05-11T01:15:58.780Z,7.70
2023-05-11T01:18:40.379Z,7.80
2023-05-11T01:21:15.424Z,7.70
2023-05-11T01:23:59.753Z,7.70
2023-05-11T01:26:39.191Z,7.60
2023-05-11T01:29:35.095Z,7.60
2023-05-11T01:32:08.368Z,7.50
2023-05-11T01:34:39.556Z,7.50
2023-05-11T01:37:27.045Z,7.50
2023-05-11T01:39:59.871Z,7.50
2023-05-11T01:42:32.542Z,7.50
2023-05-11T01:45:00.799Z,7.40
2023-05-11T01:47:30.243Z,7.40
2023-05-11T01:49:57.801Z,7.40
2023-05-11T01:52:27.249Z,7.40
2023-05-11T01:54:56.202Z,7.40
2023-05-11T01:57:24.395Z,7.30
2023-05-11T01:59:53.732Z,7.30
2023-05-11T02:02:21.759Z,7.30
2023-05-11T02:04:50.101Z,7.20
2023-05-11T02:07:19.089Z,7.20
2023-05-11T02:09:47.395Z,7.20
2023-05-11T02:12:17.905Z,7.10
2023-05-11T02:14:46.696Z,7.10
2023-05-11T02:17:16.738Z,7.10
2023-05-11T02:19:44.890Z,7.10
2023-05-11T02:22:13.410Z,7.10
2023-05-11T02:24:41.375Z,7.00
2023-05-11T02:27:08.468Z,7.00
2023-05-11T02:29:35.519Z,7.00
2023-05-11T02:32:12.263Z,7.00
2023-05-11T02:34:42.822Z,7.00
2023-05-11T02:37:15.002Z,7.00
2023-05-11T02:39:48.374Z,7.00
2023-05-11T02:42:20.817Z,7.00
2023-05-11T02:44:56.627Z,6.90
2023-05-11T02:47:32.391Z,7.00
2023-05-11T02:50:04.221Z,6.90
2023-05-11T02:52:39.582Z,6.90
2023-05-11T02:55:07.959Z,6.90
2023-05-11T02:57:34.986Z,6.90
2023-05-11T03:00:05.700Z,6.90
2023-05-11T03:02:32.998Z,6.90
2023-05-11T03:04:59.953Z,7.00
2023-05-11T03:07:26.965Z,7.00
2023-05-11T03:09:53.847Z,7.00
2023-05-11T03:12:21.784Z,7.00
2023-05-11T03:14:49.411Z,7.00
2023-05-11T03:17:18.653Z,7.10
2023-05-11T03:19:46.121Z,7.10
2023-05-11T03:22:16.490Z,7.10
2023-05-11T03:24:45.102Z,7.20
2023-05-11T03:27:12.374Z,7.20
2023-05-11T03:29:43.687Z,7.20
2023-05-11T03:32:11.477Z,7.20
2023-05-11T03:34:39.225Z,7.30
2023-05-11T03:37:06.606Z,7.30
2023-05-11T03:39:35.340Z,7.40
2023-05-11T03:42:04.045Z,7.40
2023-05-11T03:44:32.811Z,7.50
2023-05-11T03:47:01.744Z,7.50
2023-05-11T03:49:29.614Z,7.60
2023-05-11T03:51:57.636Z,7.70
2023-05-11T03:54:26.301Z,7.70
2023-05-11T03:56:53.177Z,7.80
2023-05-11T03:59:20.593Z,7.80
2023-05-11T04:01:47.580Z,7.90
2023-05-11T04:04:14.460Z,7.90
2023-05-11T04:06:41.352Z,8.00
2023-05-11T04:09:18.076Z,8.10
2023-05-11T04:11:44.868Z,8.20
2023-05-11T04:14:11.741Z,8.20
2023-05-11T04:16:38.723Z,8.30
2023-05-11T04:19:06.993Z,8.40
2023-05-11T04:21:35.824Z,8.40
2023-05-11T04:24:03.541Z,8.60
2023-05-11T04:26:30.487Z,8.70
2023-05-11T04:28:57.362Z,8.80
2023-05-11T04:31:24.282Z,8.90
2023-05-11T04:33:51.241Z,9.00
2023-05-11T04:36:18.378Z,9.00
2023-05-11T04:38:45.561Z,9.10
2023-05-11T04:41:13.809Z,9.20
2023-05-11T04:43:41.003Z,9.20
2023-05-11T04:46:09.470Z,9.40
2023-05-11T04:48:36.335Z,9.60
2023-05-11T04:51:06.982Z,9.70
2023-05-11T04:53:38.903Z,9.80
2023-05-11T04:56:05.830Z,9.90
2023-05-11T04:58:32.663Z,9.90
2023-05-11T05:00:59.525Z,9.90
2023-05-11T05:03:26.535Z,10.00
2023-05-11T05:05:53.414Z,10.10
2023-05-11T05:08:21.559Z,10.20
2023-05-11T05:10:48.945Z,10.20
2023-05-11T05:13:16.968Z,10.40
2023-05-11T05:15:44.087Z,10.40
2023-05-11T05:18:11.010Z,10.50
2023-05-11T05:20:39.641Z,10.70
2023-05-11T05:23:06.528Z,10.80
2023-05-11T05:25:34.077Z,10.90
2023-05-11T05:28:01.024Z,11.00
2023-05-11T05:30:28.078Z,11.10
2023-05-11T05:32:55.317Z,11.10
2023-05-11T05:35:22.495Z,11.30
2023-05-11T05:37:49.813Z,11.40
2023-05-11T05:40:17.541Z,11.60
2023-05-11T05:42:47.850Z,11.70
2023-05-11T05:45:19.281Z,11.80
2023-05-11T05:47:47.219Z,12.00
2023-05-11T05:50:14.191Z,12.00
2023-05-11T05:52:42.095Z,12.10
2023-05-11T05:55:09.531Z,12.10
2023-05-11T05:57:36.755Z,12.20
2023-05-11T06:00:04.693Z,12.20
2023-05-11T06:02:39.730Z,12.40
2023-05-11T06:05:08.815Z,12.60
2023-05-11T06:07:35.657Z,12.80
2023-05-11T06:10:02.883Z,12.90
2023-05-11T06:12:31.285Z,13.00
2023-05-11T06:14:58.252Z,13.20
2023-05-11T06:17:25.571Z,13.20
2023-05-11T06:19:52.615Z,13.40
2023-05-11T06:22:23.586Z,13.50
2023-05-11T06:24:51.064Z,13.60
2023-05-11T06:27:18.955Z,13.70
2023-05-11T06:29:46.236Z,13.80
2023-05-11T06:32:13.177Z,14.00
2023-05-11T06:34:40.338Z,14.10
2023-05-11T06:37:08.454Z,14.30
2023-05-11T06:39:37.546Z,14.40
2023-05-11T06:42:08.090Z,14.40
2023-05-11T06:44:35.021Z,14.60
2023-05-11T06:47:01.900Z,14.60
2023-05-11T06:49:28.854Z,14.80
2023-05-11T06:51:55.743Z,14.90
2023-05-11T06:54:22.797Z,15.00
2023-05-11T06:56:49.661Z,15.10
2023-05-11T06:59:16.692Z,15.20
2023-05-11T07:01:43.916Z,15.30
2023-05-11T07:04:10.943Z,15.40
2023-05-11T07:06:37.805Z,15.60
2023-05-11T07:09:05.010Z,15.70
2023-05-11T07:11:32.216Z,15.80
2023-05-11T07:13:59.158Z,15.90
2023-05-11T07:16:26.097Z,16.00
2023-05-11T07:18:53.024Z,16.10
2023-05-11T07:21:22.089Z,16.20
2023-05-11T07:23:49.031Z,16.30
2023-05-11T07:26:15.802Z,16.30
2023-05-11T07:28:42.600Z,16.50
2023-05-11T07:31:09.384Z,16.50
2023-05-11T07:33:38.637Z,16.60
2023-05-11T07:36:06.787Z,16.70
2023-05-11T07:38:33.779Z,16.70
2023-05-11T07:41:00.635Z,16.80
2023-05-11T07:43:27.400Z,16.80
2023-05-11T07:45:54.342Z,17.00
2023-05-11T07:48:21.664Z,17.10
2023-05-11T07:50:49.602Z,17.20
2023-05-11T07:53:16.717Z,17.30
2023-05-11T07:55:43.549Z,17.30
2023-05-11T07:58:10.492Z,17.40
2023-05-11T08:00:37.736Z,17.50
2023-05-11T08:03:04.686Z,17.50
2023-05-11T08:05:33.367Z,17.70
2023-05-11T08:08:00.269Z,17.80
2023-05-11T08:10:27.084Z,17.90
2023-05-11T08:12:53.892Z,17.90
2023-05-11T08:15:21.288Z,17.90
2023-05-11T08:17:48.227Z,18.00
2023-05-11T08:20:15.169Z,18.00
2023-05-11T08:22:41.973Z,18.00
2023-05-11T08:25:09.097Z,18.10
2023-05-11T08:27:36.039Z,18.20
2023-05-11T08:30:03.562Z,18.20
2023-05-11T08:32:30.548Z,18.30
2023-05-11T08:34:57.794Z,18.40
2023-05-11T08:37:24.688Z,18.50
2023-05-11T08:39:51.750Z,18.60
2023-05-11T08:42:20.039Z,18.70
2023-05-11T08:44:49.222Z,18.80
2023-05-11T08:49:46.113Z,18.90
2023-05-11T08:52:16.292Z,18.90
2023-05-11T08:54:43.153Z,19.00
2023-05-11T08:57:11.008Z,18.90
2023-05-11T08:59:38.324Z,18.90
2023-05-11T09:02:06.455Z,19.00
2023-05-11T09:04:34.309Z,19.10
2023-05-11T09:07:01.262Z,19.10
2023-05-11T09:09:28.629Z,19.10
2023-05-11T09:11:55.712Z,19.20
2023-05-11T09:14:26.953Z,19.20
2023-05-11T09:16:54.557Z,19.20
2023-05-11T09:19:21.926Z,19.30
2023-05-11T09:21:48.940Z,19.30
2023-05-11T09:24:15.810Z,19.30
2023-05-11T09:26:42.710Z,19.40
2023-05-11T09:29:09.612Z,19.40
2023-05-11T09:31:47.389Z,19.50
2023-05-11T09:34:23.834Z,19.50
2023-05-11T09:36:55.090Z,19.50
2023-05-11T09:42:15.651Z,19.60
2023-05-11T09:44:44.008Z,19.70
2023-05-11T09:47:38.780Z,19.60
2023-05-11T09:50:18.851Z,19.80
2023-05-11T09:52:52.949Z,19.90
2023-05-11T09:55:19.986Z,20.00
2023-05-11T09:57:55.244Z,20.00
2023-05-11T10:00:22.220Z,20.20
2023-05-11T10:03:21.480Z,20.20
2023-05-11T10:05:59.758Z,20.20
2023-05-11T10:08:31.157Z,20.20
2023-05-11T10:10:58.360Z,20.40
2023-05-11T10:13:26.503Z,20.30
2023-05-11T10:15:55.395Z,20.30
2023-05-11T10:18:22.852Z,20.30
2023-05-11T10:20:50.057Z,20.40
2023-05-11T10:23:20.490Z,20.30
2023-05-11T10:25:48.065Z,20.30
2023-05-11T10:28:15.453Z,20.40
2023-05-11T10:30:43.073Z,20.50
2023-05-11T10:33:11.555Z,20.40
2023-05-11T10:35:39.187Z,20.50
2023-05-11T10:38:10.149Z,20.60
2023-05-11T10:40:40.860Z,20.80
2023-05-11T10:43:13.383Z,20.70
2023-05-11T10:46:01.300Z,20.70
2023-05-11T10:48:53.101Z,20.60
2023-05-11T10:51:44.184Z,20.60
2023-05-11T10:54:49.335Z,20.60
2023-05-11T10:57:40.497Z,20.60
2023-05-11T11:00:43.402Z,20.80
2023-05-11T11:03:14.761Z,20.60
2023-05-11T11:05:43.859Z,20.70
2023-05-11T11:08:11.181Z,20.80
2023-05-11T11:10:39.950Z,20.90
2023-05-11T11:13:08.698Z,21.00
2023-05-11T11:16:08.714Z,21.20
2023-05-11T11:18:35.716Z,21.00
2023-05-11T11:21:04.285Z,21.10
2023-05-11T11:23:40.509Z,21.10
2023-05-11T11:26:19.063Z,21.30
2023-05-11T11:28:54.815Z,21.20
2023-05-11T11:31:26.503Z,21.30
2023-05-11T11:33:56.188Z,21.30
2023-05-11T11:37:01.099Z,21.50
2023-05-11T11:39:30.565Z,21.50
2023-05-11T11:42:04.825Z,21.40
2023-05-11T11:44:33.898Z,21.60
2023-05-11T11:47:22.730Z,21.70
2023-05-11T11:49:54.183Z,21.70
2023-05-11T11:52:27.157Z,21.60
2023-05-11T11:54:56.406Z,21.80
2023-05-11T11:57:32.630Z,21.70
2023-05-11T12:00:09.036Z,21.70
2023-05-11T12:02:45.424Z,21.80
2023-05-11T12:05:20.159Z,21.90
2023-05-11T12:07:49.858Z,22.10
2023-05-11T12:10:18.410Z,22.30
2023-05-11T12:12:49.663Z,22.30
2023-05-11T12:15:42.707Z,22.20
2023-05-11T12:18:21.303Z,22.20
2023-05-11T12:20:48.317Z,22.20
2023-05-11T12:23:15.176Z,22.20
2023-05-11T12:25:41.967Z,22.10
2023-05-11T12:28:09.878Z,22.30
2023-05-11T12:30:36.682Z,22.30
2023-05-11T12:33:04.595Z,22.30
2023-05-11T12:35:33.973Z,22.30
2023-05-11T12:38:04.756Z,22.10
2023-05-11T12:40:31.953Z,22.30
2023-05-11T12:43:00.906Z,22.00
2023-05-11T12:45:29.202Z,22.00
2023-05-11T12:47:57.264Z,22.10
2023-05-11T12:50:24.916Z,22.20
2023-05-11T12:52:51.851Z,22.20
2023-05-11T12:55:31.161Z,22.10
2023-05-11T12:58:09.118Z,22.30
2023-05-11T13:00:36.127Z,22.30
2023-05-11T13:03:03.390Z,22.10
2023-05-11T13:05:30.897Z,21.70
2023-05-11T13:08:02.765Z,22.00
2023-05-11T13:10:30.494Z,22.20
2023-05-11T13:12:57.380Z,22.30
2023-05-11T13:15:25.538Z,22.40
2023-05-11T13:18:02.844Z,22.40
2023-05-11T13:20:33.038Z,22.50
2023-05-11T13:23:06.048Z,22.40
2023-05-11T13:25:34.484Z,22.40
2023-05-11T13:28:04.050Z,22.20
2023-05-11T13:30:33.397Z,22.20
2023-05-11T13:33:01.757Z,22.10
2023-05-11T13:35:28.622Z,21.90
2023-05-11T13:37:55.485Z,22.10
2023-05-11T13:40:22.337Z,22.20
2023-05-11T13:42:49.205Z,22.10
2023-05-11T13:45:16.290Z,21.90
2023-05-11T13:47:45.538Z,22.00
2023-05-11T13:50:12.656Z,22.10
2023-05-11T13:52:40.422Z,22.30
2023-05-11T13:55:07.904Z,22.10
2023-05-11T13:57:34.912Z,22.00
2023-05-11T14:00:01.778Z,22.00
2023-05-11T14:02:38.721Z,22.00
2023-05-11T14:05:05.976Z,21.90
2023-05-11T14:07:43.269Z,21.90
2023-05-11T14:10:13.865Z,22.00
2023-05-11T14:12:41.304Z,22.00
2023-05-11T14:15:08.853Z,21.80
2023-05-11T14:17:35.900Z,22.10
2023-05-11T14:20:03.993Z,22.20
2023-05-11T14:22:30.934Z,22.60
2023-05-11T14:24:57.783Z,22.90
2023-05-11T14:27:24.634Z,22.60
2023-05-11T14:29:52.194Z,22.90
2023-05-11T14:32:19.693Z,22.60
2023-05-11T14:34:47.719Z,22.70
2023-05-11T14:37:14.695Z,22.60
2023-05-11T14:39:41.775Z,22.60
2023-05-11T14:42:09.001Z,22.70
2023-05-11T14:44:35.902Z,22.90
2023-05-11T14:47:02.828Z,23.10
2023-05-11T14:49:29.660Z,22.80
2023-05-11T14:51:57.707Z,22.80
2023-05-11T14:54:24.749Z,22.70
2023-05-11T14:56:54.087Z,22.90
2023-05-11T14:59:21.905Z,22.80
2023-05-11T15:01:49.571Z,23.00
2023-05-11T15:04:16.984Z,23.00
2023-05-11T15:06:44.136Z,23.10
2023-05-11T15:09:11.035Z,23.10
2023-05-11T15:11:37.875Z,23.20
2023-05-11T15:14:06.453Z,22.90
2023-05-11T15:16:33.750Z,22.80
2023-05-11T15:19:00.710Z,22.80
2023-05-11T15:21:27.847Z,23.10
2023-05-11T15:23:54.861Z,23.10
2023-05-11T15:26:22.813Z,23.10
2023-05-11T15:28:50.066Z,23.20
2023-05-11T15:31:16.985Z,23.50
2023-05-11T15:33:44.853Z,23.60
2023-05-11T15:36:13.942Z,23.40
2023-05-11T15:38:41.419Z,23.50
2023-05-11T15:41:08.273Z,23.50
2023-05-11T15:43:35.358Z,23.50
2023-05-11T15:46:03.672Z,23.50
2023-05-11T15:48:30.742Z,23.60
2023-05-11T15:50:59.763Z,23.90
2023-05-11T15:53:26.915Z,23.90
2023-05-11T15:55:55.523Z,24.00
2023-05-11T15:58:22.827Z,23.90
2023-05-11T16:00:49.840Z,24.10
2023-05-11T16:03:17.197Z,24.20
2023-05-11T16:05:44.904Z,23.90
2023-05-11T16:08:12.485Z,23.60
2023-05-11T16:10:39.335Z,23.80
2023-05-11T16:13:06.408Z,23.80
2023-05-11T16:15:33.262Z,23.80
2023-05-11T16:18:02.358Z,23.90
2023-05-11T16:20:31.748Z,23.90
2023-05-11T16:22:58.556Z,23.90
2023-05-11T16:25:25.467Z,24.00
2023-05-11T16:27:52.241Z,24.10
2023-05-11T16:30:24.888Z,23.90
2023-05-11T16:32:53.705Z,23.80
2023-05-11T16:35:20.955Z,23.60
2023-05-11T16:37:48.299Z,23.90
2023-05-11T16:40:19.048Z,24.10
2023-05-11T16:42:47.383Z,24.00
2023-05-11T16:45:15.095Z,24.00
2023-05-11T16:47:43.102Z,24.10
2023-05-11T16:50:10.803Z,24.10
2023-05-11T16:52:37.596Z,24.10
2023-05-11T16:55:04.954Z,24.40
2023-05-11T16:57:31.832Z,24.10
2023-05-11T16:59:58.685Z,24.00
2023-05-11T17:02:25.699Z,23.80
2023-05-11T17:04:52.899Z,23.90
2023-05-11T17:07:19.728Z,23.80
2023-05-11T17:09:46.572Z,23.50
2023-05-11T17:12:13.406Z,23.30
2023-05-11T17:14:40.245Z,23.40
2023-05-11T17:17:08.141Z,23.20
2023-05-11T17:19:34.963Z,23.10
2023-05-11T17:22:01.804Z,22.80
2023-05-11T17:24:28.765Z,22.70
2023-05-11T17:26:55.797Z,22.40
2023-05-11T17:29:23.125Z,22.10
2023-05-11T17:31:51.909Z,21.70
2023-05-11T17:34:20.490Z,21.30
2023-05-11T17:36:48.667Z,20.70
2023-05-11T17:39:17.038Z,19.90
2023-05-11T17:41:44.018Z,19.60
2023-05-11T17:44:11.153Z,19.30
2023-05-11T17:46:38.334Z,18.80
2023-05-11T17:49:06.582Z,18.70
2023-05-11T17:51:33.564Z,18.50
2023-05-11T17:54:00.373Z,18.30
2023-05-11T17:56:27.306Z,18.10
2023-05-11T17:58:54.630Z,17.80
2023-05-11T18:01:22.641Z,17.60
2023-05-11T18:03:49.943Z,17.50
2023-05-11T18:06:17.132Z,17.40
2023-05-11T18:08:44.004Z,17.50
2023-05-11T18:11:12.781Z,17.70
2023-05-11T18:13:39.981Z,18.00
2023-05-11T18:16:07.262Z,18.10
2023-05-11T18:18:34.504Z,18.10
2023-05-11T18:21:08.497Z,18.10
2023-05-11T18:23:35.281Z,18.00
2023-05-11T18:26:02.453Z,17.70
2023-05-11T18:28:29.827Z,17.60
2023-05-11T18:30:57.352Z,17.40
2023-05-11T18:33:24.337Z,17.20
2023-05-11T18:35:52.157Z,17.00
2023-05-11T18:38:19.123Z,16.90
2023-05-11T18:40:46.005Z,16.70
2023-05-11T18:43:13.815Z,16.60
2023-05-11T18:45:41.148Z,16.40
2023-05-11T18:48:08.219Z,16.20
2023-05-11T18:50:35.794Z,16.10
2023-05-11T18:53:03.033Z,15.90
2023-05-11T18:55:35.315Z,15.80
2023-05-11T18:58:05.300Z,15.60
2023-05-11T19:00:36.867Z,15.40
2023-05-11T19:03:04.160Z,15.30
2023-05-11T19:05:31.408Z,15.10
2023-05-11T19:07:58.273Z,15.00
2023-05-11T19:10:25.094Z,14.80
2023-05-11T19:12:51.956Z,14.60
2023-05-11T19:15:19.158Z,14.50
2023-05-11T19:17:46.479Z,14.40
2023-05-11T19:20:13.662Z,14.30
2023-05-11T19:22:40.658Z,14.20
2023-05-11T19:25:08.559Z,14.00
2023-05-11T19:27:35.366Z,13.80
2023-05-11T19:30:03.398Z,13.70
2023-05-11T19:32:30.733Z,13.50
2023-05-11T19:34:57.504Z,13.40
2023-05-11T19:37:24.448Z,13.30
2023-05-11T19:39:51.594Z,13.10
2023-05-11T19:42:25.870Z,13.00
2023-05-11T19:44:58.837Z,12.90
2023-05-11T19:47:25.786Z,12.80
2023-05-11T19:49:52.657Z,12.70
2023-05-11T19:52:19.467Z,12.60
2023-05-11T19:54:46.685Z,12.50
2023-05-11T19:57:13.575Z,12.40
2023-05-11T19:59:40.535Z,12.30
2023-05-11T20:02:07.580Z,12.20
2023-05-11T20:04:34.547Z,12.10
2023-05-11T20:07:01.365Z,12.00
2023-05-11T20:09:28.233Z,12.00
2023-05-11T20:11:55.039Z,11.80
2023-05-11T20:14:22.871Z,11.80
2023-05-11T20:16:49.679Z,11.70
2023-05-11T20:19:16.555Z,11.70
2023-05-11T20:21:43.369Z,11.60
2023-05-11T20:24:10.176Z,11.50
2023-05-11T20:26:37.144Z,11.50
2023-05-11T20:29:04.427Z,11.40
2023-05-11T20:31:32.797Z,11.30
2023-05-11T20:36:30.486Z,11.20
2023-05-11T20:38:57.335Z,11.10
2023-05-11T20:41:24.135Z,11.00
2023-05-11T20:43:52.501Z,11.00
2023-05-11T20:46:19.373Z,10.80
2023-05-11T20:48:51.490Z,10.80
2023-05-11T20:51:23.101Z,10.70
2023-05-11T20:53:50.709Z,10.60
2023-05-11T20:56:17.498Z,10.60
2023-05-11T20:58:47.414Z,10.50
2023-05-11T21:01:14.379Z,10.40
2023-05-11T21:03:41.501Z,10.40
2023-05-11T21:06:08.869Z,10.30
2023-05-11T21:08:36.271Z,10.20
2023-05-11T21:11:03.237Z,10.20
2023-05-11T21:13:30.270Z,10.10
2023-05-11T21:15:57.349Z,10.00
2023-05-11T21:18:29.072Z,10.00
2023-05-11T21:20:55.982Z,9.90
2023-05-11T21:23:22.809Z,9.90
2023-05-11T21:25:53.658Z,9.80
2023-05-11T21:28:20.912Z,9.80
2023-05-11T21:30:47.782Z,9.70
2023-05-11T21:33:15.334Z,9.70
2023-05-11T21:35:42.229Z,9.70
2023-05-11T21:38:09.729Z,9.60
2023-05-11T21:40:36.751Z,9.60
2023-05-11T21:43:03.666Z,9.60
2023-05-11T21:45:30.527Z,9.60
2023-05-11T21:47:58.675Z,9.50
2023-05-11T21:50:25.890Z,9.50
2023-05-11T21:52:53.059Z,9.50
2023-05-11T21:55:19.952Z,9.50
2023-05-11T21:57:46.855Z,9.50
2023-05-11T22:00:18.515Z,9.40
2023-05-11T22:02:45.844Z,9.40
2023-05-11T22:05:12.769Z,9.40
2023-05-11T22:07:39.654Z,9.40
2023-05-11T22:10:07.004Z,9.40
2023-05-11T22:12:33.846Z,9.30
2023-05-11T22:15:00.648Z,9.30
2023-05-11T22:17:27.544Z,9.30
2023-05-11T22:19:54.437Z,9.30
2023-05-11T22:22:21.264Z,9.20
2023-05-11T22:24:48.171Z,9.20
2023-05-11T22:27:16.109Z,9.20
2023-05-11T22:29:43.622Z,9.20
2023-05-11T22:32:11.945Z,9.10
2023-05-11T22:34:38.758Z,9.10
2023-05-11T22:37:05.804Z,9.10
2023-05-11T22:39:33.364Z,9.10
2023-05-11T22:42:00.244Z,9.10
2023-05-11T22:44:28.289Z,9.00
2023-05-11T22:46:56.445Z,9.00
2023-05-11T22:49:23.300Z,9.00
2023-05-11T22:51:50.162Z,9.00
2023-05-11T22:54:17.072Z,8.90
2023-05-11T22:56:43.842Z,8.90
2023-05-11T22:59:10.619Z,8.90
2023-05-11T23:01:37.553Z,8.90
2023-05-11T23:04:04.629Z,8.80
2023-05-11T23:06:32.646Z,8.80
2023-05-11T23:08:59.457Z,8.80
2023-05-11T23:11:26.473Z,8.80
2023-05-11T23:13:53.408Z,8.80
2023-05-11T23:16:20.355Z,8.80
2023-05-11T23:18:47.393Z,8.80
2023-05-11T23:21:14.360Z,8.80
2023-05-11T23:23:44.232Z,8.70
2023-05-11T23:26:11.155Z,8.70
2023-05-11T23:28:38.065Z,8.70
2023-05-11T23:31:05.144Z,8.70
2023-05-11T23:33:32.794Z,8.70
2023-05-11T23:36:00.061Z,8.70
2023-05-11T23:38:27.885Z,8.60
2023-05-11T23:40:54.709Z,8.60
2023-05-11T23:43:22.699Z,8.60
2023-05-11T23:45:57.471Z,8.50
2023-05-11T23:48:24.625Z,8.50
2023-05-11T23:50:51.472Z,8.50
2023-05-11T23:53:18.311Z,8.50
2023-05-11T23:55:50.390Z,8.40
2023-05-11T23:58:17.193Z,8.40
